• Join FlightAware (Why Join?)
  • Login
  • US Flag GB Flag 
04:36 EDT


 

Airport Tracker/Info


-or-


 

Live Flight TrackerFlight Track Log ✈ AWE1600 ✈ 25-Apr-2013 ✈ KPHL - KDTW

Flight Track Log - Related Links

Times and Time Zones

All times are in EDT time to prevent confusion due to time zone crossing. See the AWE1600 flight status page for this flight to view local times or setup timezone preferences in your user account.

Time Position Orientation Groundspeed Altitude Reporting Facility
EDT Latitude Longitude Course Direction KTS MPH feet Rate Location/Type
09:21 39.8592 -75.2794 270° West 128 147 1,100  Level FAA TRACON SMA TRACON (SMA)
09:21 39.8550 -75.2975 253° West 160 184 1,600 1,560 Climbing FAA TRACON SMA TRACON (SMA)
09:21 39.8506 -75.3178 254° West 192 221 2,200 2,220 Climbing FAA TRACON SMA TRACON (SMA)
09:22 39.8439 -75.3458 253° West 210 242 3,100 2,220 Climbing FAA TRACON SMA TRACON (SMA)
09:22 39.8378 -75.3683 251° West 230 265 3,700 2,520 Climbing FAA TRACON SMA TRACON (SMA)
09:22 39.8311 -75.3978 254° West 252 290 4,800 4,140 Climbing FAA TRACON SMA TRACON (SMA)
09:23 39.9000 -75.5661 270° West  Level FlightAware Approximate
09:23 39.8250 -75.4319 257° West 251 289 6,400  Level FAA TRACON SMA TRACON (SMA)
09:23 39.8283 -75.4594 279° West 245 282 7,600 2,760 Climbing FAA TRACON SMA TRACON (SMA)
09:23 39.8308 -75.4869 277° West 251 289 8,300 1,860 Climbing FAA TRACON SMA TRACON (SMA)
09:24 39.9148 -75.6776 258° West  Level FlightAware Approximate
09:24 39.8344 -75.5214 278° West 259 298 8,900  Level FAA TRACON SMA TRACON (SMA)
09:24 39.8381 -75.5494 280° West 258 297 9,200 1,020 Climbing FAA TRACON SMA TRACON (SMA)
09:24 39.8417 -75.5867 277° West 258 297 9,600 1,380 Climbing FAA TRACON SMA TRACON (SMA)
09:25 39.9000 -75.7908 270° West  Level FlightAware Approximate
09:25 39.8447 -75.6153 278° West 258 297 10,100  Level FAA TRACON SMA TRACON (SMA)
09:25 39.8481 -75.6436 279° West 258 297 10,900 1,800 Climbing FAA TRACON SMA TRACON (SMA)
09:25 39.8517 -75.6739 279° West 269 310 11,300 1,860 Climbing FAA TRACON SMA TRACON (SMA)
09:26 39.9001 -75.9061 270° West  Level FlightAware Approximate
09:26 39.8556 -75.7161 277° West 304 350 12,200  Level FAA TRACON SMA TRACON (SMA)
09:26 39.8603 -75.7478 281° West 296 341 13,600 3,660 Climbing FAA TRACON SMA TRACON (SMA)
09:26 39.8636 -75.7808 277° West 291 335 14,600 2,820 Climbing FAA TRACON SMA TRACON (SMA)
09:27 39.8675 -75.8214 277° West 295 339 15,500 2,580 Climbing FAA TRACON SMA TRACON (SMA)
09:27 39.8711 -75.8550 278° West 301 346 16,400 2,580 Climbing FAA TRACON SMA TRACON (SMA)
09:27 39.8756 -75.8969 278° West 305 351 17,300 2,280 Climbing FAA TRACON SMA TRACON (SMA)
09:28 39.8803 -75.9314 280° West 308 354 17,900 1,020 Climbing FAA TRACON SMA TRACON (SMA)
09:28 39.8811 -75.9397 277° West 308 354 18,000 1,800 Climbing FAA TRACON SMA TRACON (SMA)
09:30 39.9094 -76.2431 277° West 324 373 23,000 1,440 Climbing New York Center
09:31 39.9122 -76.3597 272° West 329 379 23,000  Level New York Center
09:32 39.9189 -76.4819 274° West 329 379 23,000 720 Level New York Center
09:33 39.9236 -76.6017 273° West 334 384 24,500 1,500 Climbing New York Center
09:34 39.9317 -76.7294 275° West 340 391 26,100 1,620 Climbing New York Center
09:35 39.9544 -76.8561 283° West 353 406 27,800 1,620 Climbing New York Center
09:36 39.9789 -76.9856 284° West 359 413 29,400 1,380 Climbing New York Center
09:37 40.0050 -77.1208 284° West 370 426 30,600 1,080 Climbing New York Center
09:38 40.0311 -77.2561 284° West 381 438 31,600 1,440 Climbing New York Center
09:40 40.0825 -77.5250 284° West 386 444 34,900 1,500 Climbing Cleveland Center
09:41 40.1067 -77.6594 283° West 386 444 36,100 960 Climbing Cleveland Center
09:42 40.1289 -77.7917 282° West 381 438 36,900 900 Climbing Cleveland Center
09:43 40.1367 -77.9408 274° West 376 433 38,000 540 Climbing Cleveland Center
09:44 40.1375 -78.0711 271° West 370 426 38,000  Level Cleveland Center
09:45 40.1383 -78.2042 271° West 365 420 38,000  Level Cleveland Center
09:46 40.1389 -78.3344 270° West 365 420 38,000  Level Cleveland Center
09:47 40.1414 -78.4675 271° West 365 420 38,000  Level Cleveland Center
09:48 40.1417 -78.6006 270° West 365 420 38,000 -60 Level Cleveland Center
09:49 40.1417 -78.7281 270° West 365 420 37,900 -1,020 Descending Cleveland Center
09:50 40.1417 -78.8639 270° West 365 420 36,000 -960 Descending Cleveland Center
09:51 40.1417 -79.0053 270° West 375 432 36,000  Level Cleveland Center
09:52 40.1436 -79.1408 271° West 380 437 36,000  Level Cleveland Center
09:53 40.1681 -79.2764 283° West 385 443 36,000  Level Cleveland Center
09:54 40.2028 -79.3925 291° West 380 437 36,000  Level Cleveland Center
09:55 40.2456 -79.5169 294° West 380 437 36,000 -1,140 Level Cleveland Center
09:56 40.2906 -79.6442 295° West 380 437 33,800 -1,680 Descending Cleveland Center
09:57 40.3375 -79.7769 295° West 391 450 32,700 -1,080 Descending Cleveland Center
09:58 40.3842 -79.9044 296° West 391 450 31,700 -1,020 Descending Cleveland Center
09:59 40.4308 -80.0486 293° West 391 450 30,700 -900 Descending Cleveland Center
10:00 40.4750 -80.1764 294° West 391 450 30,000 -360 Descending Cleveland Center
10:01 40.5192 -80.3017 295° West 391 450 30,000  Level Cleveland Center
10:02 40.5653 -80.4272 296° West 391 450 30,000  Level Cleveland Center
10:03 40.6069 -80.5558 293° West 381 438 30,000  Level Cleveland Center
10:04 40.6508 -80.6817 295° West 376 433 30,000  Level Cleveland Center
10:05 40.7047 -80.8022 301° West 376 433 30,000  Level Cleveland Center
10:06 40.7628 -80.9203 303° West 381 438 30,000  Level Cleveland Center
10:07 40.8208 -81.0386 303° West 381 438 30,000  Level Cleveland Center
10:08 40.8703 -81.1486 301° West 388 447 30,000  Level Cleveland Center
10:09 40.9281 -81.2675 303° West 383 441 30,000  Level Cleveland Center
10:10 40.9878 -81.3892 303° West 388 447 30,000 -480 Level Cleveland Center
10:11 41.0494 -81.5192 302° West 388 447 29,100 -1,440 Descending Cleveland Center
10:12 41.1067 -81.6358 303° West 388 447 27,200 -1,500 Descending Cleveland Center
10:13 41.1661 -81.7497 305° West 388 447 26,200 -1,020 Descending Cleveland Center
10:14 41.2211 -81.8667 302° West 383 441 25,200 -1,020 Descending Cleveland Center
10:15 41.2739 -81.9756 303° West 377 434 24,200 -1,020 Descending Cleveland Center
10:16 41.3247 -82.0844 302° West 363 418 23,200 -960 Descending Cleveland Center
10:17 41.3692 -82.1825 301° West 352 405 22,300 -960 Descending Cleveland Center
10:18 41.4283 -82.2836 308° West 347 399 21,300 -1,380 Descending Cleveland Center
10:19 41.4872 -82.3794 309° West 336 387 19,600 -1,860 Descending Cleveland Center
10:20 41.5461 -82.4753 309° West 329 379 17,800 -1,980 Descending Cleveland Center
10:21 41.5847 -82.5403 308° West 326 375 16,500 -1,740 Descending Cleveland Center
10:21 41.6050 -82.5769 306° West 328 377 15,900 -1,860 Descending Cleveland Center
10:22 41.6272 -82.6167 307° West 326 375 15,000 -1,920 Descending Cleveland Center
10:22 41.6556 -82.6619 310° West 328 377 14,000 -1,980 Descending Cleveland Center
10:23 41.6939 -82.7244 309° West 325 374 12,800 -1,920 Descending Cleveland Center
10:23 41.7100 -82.7556 305° West 328 377 12,100 -900 Descending Cleveland Center
10:24 41.7486 -82.8069 315° West 327 376 12,000 -120 Descending Cleveland Center
10:24 41.7772 -82.8414 318° Northwest 323 372 12,000  Level Cleveland Center
10:25 41.8119 -82.8817 319° Northwest 335 386 12,000  Level Cleveland Center
10:25 41.8464 -82.9247 317° Northwest 328 377 12,000  Level Cleveland Center
10:26 41.8892 -82.9764 318° Northwest 336 387 12,000  Level Cleveland Center
10:26 41.9133 -83.0081 316° Northwest 328 377 12,000  Level Cleveland Center
10:27 41.9500 -83.0514 319° Northwest 334 384 12,000 -240 Level Cleveland Center
10:27 41.9825 -83.0917 317° Northwest 338 389 11,800 -900 Descending Cleveland Center
10:28 42.0294 -83.1439 320° Northwest 327 376 11,000 -840 Descending Cleveland Center
10:28 42.0497 -83.1697 317° Northwest 328 377 11,000  Level Cleveland Center
10:29 42.0883 -83.2133 320° Northwest 252 290 11,000  Level Cleveland Center
10:29 42.1089 -83.2169 353° North 293 337 11,000  Level Cleveland Center
10:30 42.1650 -83.2278 352° North 255 293 11,000 -600 Level Cleveland Center
10:31 42.2261 -83.1967 21° North 271 312 10,100 -1,440 Descending Cleveland Center
10:32 42.2961 -83.1461 28° Northeast 241 277 8,100 -2,040 Descending Cleveland Center
10:33 42.3553 -83.1119 23° Northeast 224 258 5,800 -1,560 Descending Cleveland Center
10:34 42.3853 -83.1667 307° West 154 177 5,000 -840 Descending Cleveland Center
10:35 42.3697 -83.2108 245° Southwest 146 168 4,200 -900 Descending Cleveland Center